createdAt,value
2022-12-11T00:01:46.285Z,100401.97
2022-12-11T00:04:32.178Z,100391.53
2022-12-11T00:07:17.384Z,100392.91
2022-12-11T00:10:02.258Z,100390.13
2022-12-11T00:12:47.655Z,100396.16
2022-12-11T00:15:33.062Z,100400.00
2022-12-11T00:18:18.498Z,100403.25
2022-12-11T00:21:05.823Z,100410.00
2022-12-11T00:23:51.253Z,100403.31
2022-12-11T00:26:36.404Z,100408.59
2022-12-11T00:29:21.475Z,100401.22
2022-12-11T00:32:06.427Z,100409.47
2022-12-11T00:34:51.667Z,100415.69
2022-12-11T00:37:36.725Z,100406.31
2022-12-11T00:40:22.184Z,100409.13
2022-12-11T00:43:07.063Z,100410.69
2022-12-11T00:45:52.653Z,100410.44
2022-12-11T00:48:38.613Z,100418.41
2022-12-11T00:51:23.958Z,100421.56
2022-12-11T00:54:09.231Z,100423.50
2022-12-11T00:56:55.975Z,100423.22
2022-12-11T00:59:41.221Z,100425.06
2022-12-11T01:02:26.532Z,100427.25
2022-12-11T01:05:11.973Z,100422.59
2022-12-11T01:07:57.586Z,100431.38
2022-12-11T01:10:42.966Z,100437.06
2022-12-11T01:13:28.377Z,100429.44
2022-12-11T01:16:15.665Z,100435.22
2022-12-11T01:19:01.109Z,100432.91
2022-12-11T01:21:46.164Z,100444.03
2022-12-11T01:24:31.536Z,100445.72
2022-12-11T01:27:17.035Z,100438.78
2022-12-11T01:30:02.378Z,100448.72
2022-12-11T01:32:48.519Z,100442.66
2022-12-11T01:35:34.088Z,100436.00
2022-12-11T01:38:19.503Z,100438.72
2022-12-11T01:41:04.895Z,100445.03
2022-12-11T01:43:57.133Z,100439.94
2022-12-11T01:46:43.102Z,100442.72
2022-12-11T01:49:29.507Z,100439.16
2022-12-11T01:52:19.434Z,100443.19
2022-12-11T01:55:05.778Z,100442.31
2022-12-11T01:57:52.160Z,100445.75
2022-12-11T02:00:37.624Z,100442.44
2022-12-11T02:03:23.292Z,100431.81
2022-12-11T02:06:47.473Z,100432.16
2022-12-11T02:09:36.070Z,100432.00
2022-12-11T02:12:51.316Z,100419.81
2022-12-11T02:15:51.348Z,100419.91
2022-12-11T02:18:54.203Z,100414.91
2022-12-11T02:21:50.712Z,100415.81
2022-12-11T02:25:01.848Z,100403.00
2022-12-11T02:27:55.713Z,100403.97
2022-12-11T02:30:44.821Z,100406.84
2022-12-11T02:33:38.929Z,100403.34
2022-12-11T02:36:28.565Z,100410.91
2022-12-11T02:39:15.609Z,100401.09
2022-12-11T02:42:02.742Z,100401.84
2022-12-11T02:44:49.862Z,100408.94
2022-12-11T02:47:37.086Z,100412.09
2022-12-11T02:50:23.347Z,100407.63
2022-12-11T02:53:14.387Z,100413.56
2022-12-11T02:56:12.932Z,100422.69
2022-12-11T02:59:04.331Z,100416.13
2022-12-11T03:01:50.414Z,100413.50
2022-12-11T03:04:36.493Z,100410.78
2022-12-11T03:07:25.936Z,100407.34
2022-12-11T03:10:14.799Z,100397.53
2022-12-11T03:13:01.289Z,100411.13
2022-12-11T03:16:05.054Z,100404.56
2022-12-11T03:19:16.217Z,100414.91
2022-12-11T03:22:12.599Z,100415.25
2022-12-11T03:25:20.517Z,100414.13
2022-12-11T03:28:19.960Z,100412.38
2022-12-11T03:31:13.306Z,100419.97
2022-12-11T03:34:02.886Z,100410.91
2022-12-11T03:36:50.261Z,100427.69
2022-12-11T03:39:45.979Z,100417.63
2022-12-11T03:42:31.896Z,100421.56
2022-12-11T03:45:19.230Z,100424.03
2022-12-11T03:48:05.814Z,100421.56
2022-12-11T03:50:51.862Z,100416.75
2022-12-11T03:53:38.164Z,100419.25
2022-12-11T03:56:27.515Z,100408.59
2022-12-11T03:59:12.701Z,100406.31
2022-12-11T04:01:58.319Z,100410.53
2022-12-11T04:04:43.817Z,100415.94
2022-12-11T04:07:29.266Z,100422.28
2022-12-11T04:10:14.871Z,100419.44
2022-12-11T04:13:00.069Z,100417.63
2022-12-11T04:15:45.514Z,100419.03
2022-12-11T04:18:30.958Z,100419.97
2022-12-11T04:21:19.290Z,100417.50
2022-12-11T04:24:05.239Z,100422.13
2022-12-11T04:26:50.123Z,100414.50
2022-12-11T04:29:35.457Z,100414.34
2022-12-11T04:32:20.982Z,100408.22
2022-12-11T04:35:08.731Z,100415.69
2022-12-11T04:37:54.328Z,100410.13
2022-12-11T04:40:39.886Z,100416.13
2022-12-11T04:43:25.201Z,100414.88
2022-12-11T04:46:20.335Z,100413.63
2022-12-11T04:49:05.715Z,100414.22
2022-12-11T04:51:50.535Z,100414.44
2022-12-11T04:54:35.953Z,100406.25
2022-12-11T04:57:21.099Z,100406.59
2022-12-11T05:00:09.097Z,100394.03
2022-12-11T05:02:54.677Z,100393.25
2022-12-11T05:05:39.969Z,100386.00
2022-12-11T05:08:26.717Z,100386.19
2022-12-11T05:11:14.953Z,100380.50
2022-12-11T05:14:00.299Z,100372.13
2022-12-11T05:16:45.752Z,100367.91
2022-12-11T05:19:30.965Z,100363.00
2022-12-11T05:22:16.640Z,100360.44
2022-12-11T05:25:01.620Z,100349.78
2022-12-11T05:27:46.569Z,100353.78
2022-12-11T05:30:32.585Z,100357.78
2022-12-11T05:33:17.536Z,100351.34
2022-12-11T05:36:03.506Z,100343.47
2022-12-11T05:38:49.632Z,100346.66
2022-12-11T05:41:35.016Z,100352.94
2022-12-11T05:44:19.923Z,100348.78
2022-12-11T05:47:05.471Z,100340.75
2022-12-11T05:49:51.110Z,100337.69
2022-12-11T05:52:36.418Z,100344.22
2022-12-11T05:55:21.850Z,100353.06
2022-12-11T05:58:07.391Z,100358.69
2022-12-11T06:00:52.562Z,100364.81
2022-12-11T06:03:38.314Z,100366.81
2022-12-11T06:06:24.786Z,100376.91
2022-12-11T06:09:14.303Z,100372.50
2022-12-11T06:11:59.604Z,100387.94
2022-12-11T06:14:47.101Z,100378.09
2022-12-11T06:17:34.190Z,100374.19
2022-12-11T06:20:19.234Z,100368.75
2022-12-11T06:23:05.196Z,100373.72
2022-12-11T06:25:50.643Z,100367.25
2022-12-11T06:28:36.275Z,100369.31
2022-12-11T06:31:21.632Z,100369.41
2022-12-11T06:34:07.175Z,100373.09
2022-12-11T06:36:53.898Z,100375.63
2022-12-11T06:39:39.054Z,100367.47
2022-12-11T06:42:24.554Z,100367.84
2022-12-11T06:45:11.000Z,100369.31
2022-12-11T06:47:56.433Z,100360.88
2022-12-11T06:50:42.040Z,100366.34
2022-12-11T06:53:27.170Z,100362.66
2022-12-11T06:56:15.136Z,100371.75
2022-12-11T06:59:05.728Z,100377.59
2022-12-11T07:01:52.634Z,100368.81
2022-12-11T07:04:38.100Z,100373.31
2022-12-11T07:07:23.852Z,100372.31
2022-12-11T07:10:10.731Z,100370.13
2022-12-11T07:12:58.513Z,100373.53
2022-12-11T07:15:44.105Z,100374.13
2022-12-11T07:18:28.952Z,100374.09
2022-12-11T07:21:14.207Z,100379.88
2022-12-11T07:24:00.633Z,100379.94
2022-12-11T07:26:46.271Z,100384.78
2022-12-11T07:29:31.985Z,100388.44
2022-12-11T07:32:17.266Z,100387.03
2022-12-11T07:35:03.767Z,100399.03
2022-12-11T07:37:48.890Z,100404.72
2022-12-11T07:40:34.191Z,100401.38
2022-12-11T07:43:20.729Z,100400.78
2022-12-11T07:46:10.630Z,100398.97
2022-12-11T07:48:56.533Z,100397.47
2022-12-11T07:51:42.527Z,100395.97
2022-12-11T07:54:27.596Z,100389.25
2022-12-11T07:57:15.215Z,100392.25
2022-12-11T08:00:00.350Z,100384.59
2022-12-11T08:02:45.895Z,100397.31
2022-12-11T08:05:32.312Z,100389.59
2022-12-11T08:08:18.980Z,100391.63
2022-12-11T08:11:05.081Z,100401.00
2022-12-11T08:13:51.810Z,100395.47
2022-12-11T08:16:37.780Z,100389.78
2022-12-11T08:19:23.069Z,100390.22
2022-12-11T08:22:08.862Z,100382.59
2022-12-11T08:24:53.843Z,100388.97
2022-12-11T08:27:39.343Z,100390.03
2022-12-11T08:30:25.103Z,100392.31
2022-12-11T08:33:10.445Z,100394.06
2022-12-11T08:35:55.932Z,100403.81
2022-12-11T08:38:41.935Z,100390.47
2022-12-11T08:41:29.545Z,100392.50
2022-12-11T08:44:17.218Z,100396.69
2022-12-11T08:47:02.147Z,100399.50
2022-12-11T08:49:48.727Z,100398.38
2022-12-11T08:52:35.036Z,100398.81
2022-12-11T08:55:20.648Z,100407.09
2022-12-11T08:58:08.254Z,100391.22
2022-12-11T09:00:53.491Z,100389.47
2022-12-11T09:03:40.177Z,100396.31
2022-12-11T09:06:28.167Z,100382.50
2022-12-11T09:09:13.153Z,100390.63
2022-12-11T09:11:58.857Z,100380.34
2022-12-11T09:14:44.356Z,100373.50
2022-12-11T09:17:29.509Z,100364.22
2022-12-11T09:20:14.596Z,100359.69
2022-12-11T09:23:02.600Z,100365.19
2022-12-11T09:25:47.752Z,100364.22
2022-12-11T09:28:33.839Z,100366.94
2022-12-11T09:31:21.662Z,100365.81
2022-12-11T09:34:11.513Z,100358.53
2022-12-11T09:36:56.777Z,100348.91
2022-12-11T09:39:44.674Z,100350.00
2022-12-11T09:42:48.687Z,100341.56
2022-12-11T09:45:33.891Z,100336.16
2022-12-11T09:48:23.089Z,100332.38
2022-12-11T09:51:27.480Z,100332.59
2022-12-11T09:54:13.839Z,100343.34
2022-12-11T09:57:38.068Z,100336.75
2022-12-11T10:00:31.234Z,100323.88
2022-12-11T10:03:31.440Z,100324.03
2022-12-11T10:06:19.552Z,100328.81
2022-12-11T10:09:16.346Z,100330.16
2022-12-11T10:12:19.926Z,100328.31
2022-12-11T10:15:17.081Z,100332.16
2022-12-11T10:18:09.431Z,100332.00
2022-12-11T10:20:55.006Z,100329.50
2022-12-11T10:23:55.464Z,100325.72
2022-12-11T10:26:40.842Z,100319.88
2022-12-11T10:29:26.256Z,100311.81
2022-12-11T10:32:39.506Z,100307.88
2022-12-11T10:35:36.337Z,100314.97
2022-12-11T10:38:24.482Z,100316.03
2022-12-11T10:41:22.412Z,100317.66
2022-12-11T10:44:39.850Z,100322.84
2022-12-11T10:47:25.590Z,100312.03
2022-12-11T10:50:26.113Z,100316.16
2022-12-11T10:53:21.789Z,100324.03
2022-12-11T10:56:08.170Z,100322.75
2022-12-11T10:58:54.823Z,100317.06
2022-12-11T11:01:40.319Z,100313.38
2022-12-11T11:04:36.771Z,100321.34
2022-12-11T11:07:33.182Z,100318.59
2022-12-11T11:10:19.794Z,100315.16
2022-12-11T11:13:04.693Z,100305.88
2022-12-11T11:16:03.257Z,100300.41
2022-12-11T11:18:55.962Z,100298.44
2022-12-11T11:21:53.171Z,100288.66
2022-12-11T11:24:47.372Z,100282.94
2022-12-11T11:27:38.807Z,100274.34
2022-12-11T11:30:30.647Z,100271.31
2022-12-11T11:33:19.774Z,100275.69
2022-12-11T11:36:08.333Z,100276.19
2022-12-11T11:39:02.409Z,100274.91
2022-12-11T11:42:15.543Z,100274.72
2022-12-11T11:45:15.749Z,100253.66
2022-12-11T11:48:32.395Z,100260.22
2022-12-11T11:51:26.850Z,100256.13
2022-12-11T11:54:35.452Z,100264.25
2022-12-11T11:57:32.302Z,100265.28
2022-12-11T12:00:31.737Z,100275.16
2022-12-11T12:03:22.677Z,100275.06
2022-12-11T12:06:21.321Z,100282.91
2022-12-11T12:09:43.526Z,100280.06
2022-12-11T12:12:46.820Z,100279.75
2022-12-11T12:15:54.122Z,100287.03
2022-12-11T12:18:52.351Z,100281.72
2022-12-11T12:21:38.193Z,100281.97
2022-12-11T12:24:43.499Z,100275.13
2022-12-11T12:28:07.894Z,100280.56
2022-12-11T12:31:08.557Z,100279.16
2022-12-11T12:34:20.343Z,100277.53
2022-12-11T12:37:20.614Z,100283.97
2022-12-11T12:40:12.750Z,100281.91
2022-12-11T12:43:25.815Z,100287.31
2022-12-11T12:46:26.308Z,100291.00
2022-12-11T12:49:35.396Z,100291.44
2022-12-11T12:52:32.361Z,100298.31
2022-12-11T12:55:27.651Z,100290.25
2022-12-11T12:58:26.063Z,100288.69
2022-12-11T13:01:20.554Z,100285.53
2022-12-11T13:04:16.675Z,100279.50
2022-12-11T13:07:22.929Z,100279.13
2022-12-11T13:10:22.575Z,100273.47
2022-12-11T13:13:53.202Z,100267.38
2022-12-11T13:16:45.528Z,100254.94
2022-12-11T13:19:42.097Z,100251.44
2022-12-11T13:22:27.556Z,100254.94
2022-12-11T13:25:46.182Z,100249.72
2022-12-11T13:28:48.241Z,100251.44
2022-12-11T13:31:38.870Z,100247.41
2022-12-11T13:34:27.264Z,100253.03
2022-12-11T13:37:28.096Z,100261.22
2022-12-11T13:40:24.497Z,100256.94
2022-12-11T13:43:24.125Z,100263.00
2022-12-11T13:46:13.292Z,100255.25
2022-12-11T13:49:02.150Z,100254.09
2022-12-11T13:51:54.126Z,100263.38
2022-12-11T13:54:48.382Z,100260.50
2022-12-11T13:57:33.927Z,100262.41
2022-12-11T14:00:24.949Z,100274.16
2022-12-11T14:03:11.057Z,100283.69
2022-12-11T14:05:56.509Z,100282.88
2022-12-11T14:08:44.029Z,100281.59
2022-12-11T14:11:46.034Z,100288.13
2022-12-11T14:14:44.711Z,100289.72
2022-12-11T14:17:34.318Z,100289.88
2022-12-11T14:20:23.435Z,100295.09
2022-12-11T14:23:18.566Z,100295.16
2022-12-11T14:26:13.192Z,100292.31
2022-12-11T14:28:58.493Z,100297.16
2022-12-11T14:31:44.494Z,100306.41
2022-12-11T14:34:38.751Z,100308.72
2022-12-11T14:37:26.518Z,100320.25
2022-12-11T14:40:18.442Z,100314.47
2022-12-11T14:43:13.664Z,100316.84
2022-12-11T14:46:07.710Z,100310.94
2022-12-11T14:49:02.504Z,100318.19
2022-12-11T14:51:55.510Z,100317.91
2022-12-11T14:54:46.281Z,100325.53
2022-12-11T14:57:33.276Z,100329.81
2022-12-11T15:00:38.084Z,100323.06
2022-12-11T15:03:24.747Z,100328.16
2022-12-11T15:06:29.473Z,100332.38
2022-12-11T15:09:31.303Z,100337.63
2022-12-11T15:12:19.186Z,100336.31
2022-12-11T15:15:06.588Z,100338.41
2022-12-11T15:17:53.008Z,100333.69
2022-12-11T15:20:38.450Z,100338.88
2022-12-11T15:23:23.820Z,100346.25
2022-12-11T15:26:08.978Z,100337.44
2022-12-11T15:29:00.195Z,100342.19
2022-12-11T15:31:45.348Z,100341.16
2022-12-11T15:34:42.104Z,100337.28
2022-12-11T15:37:32.438Z,100333.28
2022-12-11T15:40:17.936Z,100345.88
2022-12-11T15:43:04.715Z,100357.72
2022-12-11T15:45:50.560Z,100352.03
2022-12-11T15:48:35.813Z,100353.94
2022-12-11T15:51:20.904Z,100350.25
2022-12-11T15:54:06.449Z,100360.16
2022-12-11T15:56:51.722Z,100359.94
2022-12-11T15:59:36.707Z,100354.22
2022-12-11T16:02:22.207Z,100356.06
2022-12-11T16:05:07.741Z,100357.91
2022-12-11T16:07:53.315Z,100352.38
2022-12-11T16:10:38.475Z,100356.84
2022-12-11T16:13:23.870Z,100348.03
2022-12-11T16:16:09.161Z,100348.69
2022-12-11T16:18:54.439Z,100349.31
2022-12-11T16:21:39.930Z,100355.53
2022-12-11T16:24:25.465Z,100350.44
2022-12-11T16:27:11.111Z,100347.03
2022-12-11T16:29:56.342Z,100349.66
2022-12-11T16:32:42.064Z,100346.44
2022-12-11T16:35:28.774Z,100338.81
2022-12-11T16:38:14.241Z,100343.75
2022-12-11T16:41:00.694Z,100347.22
2022-12-11T16:43:45.998Z,100352.72
2022-12-11T16:46:31.594Z,100353.41
2022-12-11T16:49:17.554Z,100346.06
2022-12-11T16:52:02.638Z,100338.28
2022-12-11T16:54:47.542Z,100348.50
2022-12-11T16:57:32.819Z,100352.88
2022-12-11T17:00:18.293Z,100343.16
2022-12-11T17:03:03.943Z,100328.25
2022-12-11T17:05:49.272Z,100336.91
2022-12-11T17:08:34.892Z,100329.06
2022-12-11T17:11:22.305Z,100342.53
2022-12-11T17:14:10.151Z,100329.28
2022-12-11T17:16:56.274Z,100331.59
2022-12-11T17:19:41.150Z,100333.81
2022-12-11T17:22:32.205Z,100327.31
2022-12-11T17:25:17.267Z,100336.88
2022-12-11T17:28:05.027Z,100344.66
2022-12-11T17:30:50.359Z,100338.00
2022-12-11T17:33:35.555Z,100338.28
2022-12-11T17:36:21.887Z,100337.03
2022-12-11T17:39:07.482Z,100335.59
2022-12-11T17:41:52.538Z,100332.19
2022-12-11T17:44:38.123Z,100336.13
2022-12-11T17:47:23.398Z,100331.44
2022-12-11T17:50:09.353Z,100330.38
2022-12-11T17:52:54.492Z,100323.94
2022-12-11T17:55:41.268Z,100320.31
2022-12-11T17:58:27.113Z,100324.06
2022-12-11T18:01:13.158Z,100326.34
2022-12-11T18:03:59.835Z,100326.28
2022-12-11T18:06:44.988Z,100327.31
2022-12-11T18:09:30.308Z,100331.78
2022-12-11T18:12:15.676Z,100328.63
2022-12-11T18:15:01.610Z,100321.38
2022-12-11T18:17:47.044Z,100326.53
2022-12-11T18:20:35.547Z,100326.63
2022-12-11T18:23:20.860Z,100331.72
2022-12-11T18:26:06.220Z,100327.34
2022-12-11T18:28:51.900Z,100330.13
2022-12-11T18:31:42.411Z,100333.19
2022-12-11T18:34:27.872Z,100335.97
2022-12-11T18:37:13.244Z,100334.50
2022-12-11T18:39:58.673Z,100334.13
2022-12-11T18:42:44.033Z,100328.13
2022-12-11T18:45:29.519Z,100327.50
2022-12-11T18:48:15.121Z,100327.41
2022-12-11T18:51:00.167Z,100334.59
2022-12-11T18:53:45.783Z,100338.97
2022-12-11T18:56:31.047Z,100330.72
2022-12-11T18:59:16.029Z,100329.31
2022-12-11T19:02:01.415Z,100324.78
2022-12-11T19:04:47.046Z,100323.56
2022-12-11T19:07:32.417Z,100320.44
2022-12-11T19:10:17.750Z,100326.63
2022-12-11T19:13:03.203Z,100329.44
2022-12-11T19:15:48.724Z,100331.44
2022-12-11T19:18:34.257Z,100325.75
2022-12-11T19:21:19.528Z,100333.72
2022-12-11T19:24:06.263Z,100330.03
2022-12-11T19:26:52.018Z,100335.72
2022-12-11T19:29:36.967Z,100335.38
2022-12-11T19:32:22.607Z,100334.44
2022-12-11T19:35:07.911Z,100329.97
2022-12-11T19:37:53.420Z,100327.34
2022-12-11T19:40:40.892Z,100324.69
2022-12-11T19:43:25.894Z,100321.19
2022-12-11T19:46:12.551Z,100326.44
2022-12-11T19:48:58.790Z,100330.94
2022-12-11T19:51:44.426Z,100331.44
2022-12-11T19:54:29.360Z,100330.75
2022-12-11T19:57:14.690Z,100329.41
2022-12-11T20:00:00.901Z,100325.41
2022-12-11T20:02:46.085Z,100327.03
2022-12-11T20:05:31.474Z,100317.50
2022-12-11T20:11:22.607Z,100320.41
2022-12-11T20:14:08.380Z,100328.97
2022-12-11T20:19:59.240Z,100323.44
2022-12-11T20:22:44.631Z,100322.97
2022-12-11T20:25:41.971Z,100323.44
2022-12-11T20:28:27.159Z,100327.88
2022-12-11T20:31:20.285Z,100320.03
2022-12-11T20:34:06.953Z,100328.22
2022-12-11T20:36:52.358Z,100322.00
2022-12-11T20:39:40.466Z,100325.59
2022-12-11T20:42:26.586Z,100324.19
2022-12-11T20:45:12.077Z,100321.72
2022-12-11T20:47:57.467Z,100316.41
2022-12-11T20:50:43.020Z,100311.50
2022-12-11T20:53:28.101Z,100312.72
2022-12-11T20:56:16.164Z,100311.56
2022-12-11T20:59:01.433Z,100310.03
2022-12-11T21:01:46.881Z,100299.94
2022-12-11T21:04:32.357Z,100300.78
2022-12-11T21:07:17.526Z,100305.59
2022-12-11T21:10:03.515Z,100303.06
2022-12-11T21:12:49.026Z,100305.22
2022-12-11T21:15:39.097Z,100299.28
2022-12-11T21:18:24.451Z,100297.34
2022-12-11T21:21:09.962Z,100298.13
2022-12-11T21:23:54.808Z,100287.66
2022-12-11T21:26:40.314Z,100291.59
2022-12-11T21:29:26.985Z,100290.78
2022-12-11T21:32:12.316Z,100295.09
2022-12-11T21:34:57.237Z,100293.69
2022-12-11T21:37:42.010Z,100293.91
2022-12-11T21:40:28.195Z,100295.75
2022-12-11T21:43:13.318Z,100288.69
2022-12-11T21:46:01.757Z,100284.31
2022-12-11T21:48:48.321Z,100291.31
2022-12-11T21:51:38.707Z,100292.63
2022-12-11T21:54:25.431Z,100293.69
2022-12-11T21:57:10.871Z,100293.75
2022-12-11T21:59:55.766Z,100292.41
2022-12-11T22:02:41.580Z,100288.78
2022-12-11T22:05:26.689Z,100293.09
2022-12-11T22:08:11.991Z,100302.47
2022-12-11T22:10:57.284Z,100301.16
2022-12-11T22:13:42.749Z,100310.19
2022-12-11T22:16:28.698Z,100301.16
2022-12-11T22:19:14.202Z,100313.72
2022-12-11T22:21:59.596Z,100310.25
2022-12-11T22:24:45.265Z,100299.66
2022-12-11T22:27:30.364Z,100302.13
2022-12-11T22:30:15.858Z,100296.56
2022-12-11T22:33:01.146Z,100300.41
2022-12-11T22:35:46.602Z,100302.41
2022-12-11T22:38:32.253Z,100305.19
2022-12-11T22:41:28.133Z,100308.16
2022-12-11T22:44:16.780Z,100313.38
2022-12-11T22:47:02.127Z,100312.19
2022-12-11T22:49:47.817Z,100320.84
2022-12-11T22:52:33.207Z,100317.88
2022-12-11T22:55:18.718Z,100317.34
2022-12-11T22:58:03.775Z,100320.69
2022-12-11T23:00:49.178Z,100322.91
2022-12-11T23:03:34.521Z,100325.13
2022-12-11T23:06:23.046Z,100328.22
2022-12-11T23:09:08.408Z,100323.03
2022-12-11T23:11:53.520Z,100330.56
2022-12-11T23:14:38.955Z,100327.13
2022-12-11T23:17:24.495Z,100335.13
2022-12-11T23:20:10.143Z,100333.81
2022-12-11T23:22:55.628Z,100324.59
2022-12-11T23:25:40.951Z,100323.41
2022-12-11T23:28:26.254Z,100322.53
2022-12-11T23:31:11.553Z,100321.13
2022-12-11T23:33:57.234Z,100328.41
2022-12-11T23:36:44.135Z,100328.53
2022-12-11T23:39:29.336Z,100328.88
2022-12-11T23:42:14.743Z,100329.72
2022-12-11T23:45:00.117Z,100337.72
2022-12-11T23:47:45.551Z,100337.38
2022-12-11T23:50:30.881Z,100335.59
2022-12-11T23:53:16.402Z,100343.50
2022-12-11T23:56:07.964Z,100344.84
2022-12-11T23:58:53.633Z,100347.63
